createdAt,value
2023-04-13T00:03:24.194Z,99464.47
2023-04-13T00:10:25.930Z,99485.25
2023-04-13T00:17:27.487Z,99466.75
2023-04-13T00:24:29.022Z,99468.88
2023-04-13T00:31:30.762Z,99462.22
2023-04-13T00:38:32.417Z,99467.50
2023-04-13T00:45:37.766Z,99484.91
2023-04-13T00:52:39.562Z,99508.22
2023-04-13T00:59:41.128Z,99518.31
2023-04-13T01:06:45.087Z,99531.81
2023-04-13T01:14:23.184Z,99567.25
2023-04-13T01:21:27.663Z,99558.59
2023-04-13T01:28:29.906Z,99564.22
2023-04-13T01:35:31.605Z,99591.31
2023-04-13T01:42:33.633Z,99613.31
2023-04-13T01:49:35.789Z,99616.63
2023-04-13T01:57:02.058Z,99642.00
2023-04-13T02:04:04.268Z,99644.31
2023-04-13T02:11:07.833Z,99649.59
2023-04-13T02:18:10.517Z,99646.22
2023-04-13T02:25:12.607Z,99649.50
2023-04-13T02:32:14.462Z,99650.13
2023-04-13T02:39:16.060Z,99643.16
2023-04-13T02:46:18.088Z,99660.78
2023-04-13T02:53:20.968Z,99655.47
2023-04-13T03:00:28.551Z,99671.22
2023-04-13T03:07:34.476Z,99666.31
2023-04-13T03:14:37.971Z,99677.78
2023-04-13T03:21:45.656Z,99686.84
2023-04-13T03:28:51.538Z,99703.16
2023-04-13T03:35:53.971Z,99696.59
2023-04-13T03:43:04.613Z,99699.84
2023-04-13T03:50:10.442Z,99698.31
2023-04-13T03:57:12.502Z,99704.09
2023-04-13T04:04:14.888Z,99712.63
2023-04-13T04:11:17.320Z,99722.03
2023-04-13T04:18:18.926Z,99733.78
2023-04-13T04:25:27.467Z,99743.41
2023-04-13T04:32:29.595Z,99737.66
2023-04-13T04:39:34.916Z,99757.16
2023-04-13T04:46:45.471Z,99770.19
2023-04-13T04:53:49.798Z,99758.00
2023-04-13T05:00:53.141Z,99756.34
2023-04-13T05:07:54.835Z,99762.34
2023-04-13T05:14:57.057Z,99750.06
2023-04-13T05:21:59.399Z,99780.66
2023-04-13T05:29:01.392Z,99783.75
2023-04-13T05:36:08.301Z,99775.53
2023-04-13T05:43:12.166Z,99795.72
2023-04-13T05:50:20.051Z,99809.50
2023-04-13T05:57:21.806Z,99818.34
2023-04-13T06:04:27.249Z,99828.09
2023-04-13T06:11:29.536Z,99843.06
2023-04-13T06:18:31.075Z,99848.63
2023-04-13T06:25:32.732Z,99848.41
2023-04-13T06:32:35.432Z,99861.53
2023-04-13T06:39:38.629Z,99873.97
2023-04-13T06:46:43.060Z,99882.88
2023-04-13T06:53:47.429Z,99909.31
2023-04-13T07:00:49.150Z,99915.75
2023-04-13T07:07:51.670Z,99923.13
2023-04-13T07:14:54.626Z,99922.25
2023-04-13T07:21:59.874Z,99908.03
2023-04-13T07:29:01.730Z,99909.44
2023-04-13T07:36:08.706Z,99909.97
2023-04-13T07:43:11.292Z,99929.63
2023-04-13T07:50:16.550Z,99937.19
2023-04-13T07:57:21.336Z,99926.44
2023-04-13T08:04:29.433Z,99923.56
2023-04-13T08:11:31.609Z,99935.38
2023-04-13T08:18:39.806Z,99938.66
2023-04-13T08:25:44.606Z,99959.06
2023-04-13T08:32:46.636Z,99971.03
2023-04-13T08:39:48.392Z,99969.44
2023-04-13T08:46:53.336Z,99972.66
2023-04-13T08:54:02.561Z,99971.28
2023-04-13T09:01:13.487Z,99980.84
2023-04-13T09:08:16.946Z,99977.56
2023-04-13T09:15:21.149Z,99984.69
2023-04-13T09:22:42.010Z,99976.56
2023-04-13T09:29:53.640Z,99986.69
2023-04-13T09:36:57.312Z,99993.81
2023-04-13T09:44:01.233Z,99991.94
2023-04-13T09:51:05.554Z,99989.56
2023-04-13T09:58:14.722Z,99976.56
2023-04-13T10:05:17.405Z,99980.22
2023-04-13T10:12:18.995Z,99984.41
2023-04-13T10:19:21.894Z,99992.09
2023-04-13T10:26:32.480Z,99993.78
2023-04-13T10:33:34.077Z,99988.09
2023-04-13T10:40:45.551Z,99997.72
2023-04-13T10:47:47.523Z,99989.84
2023-04-13T10:54:49.237Z,99996.53
2023-04-13T11:01:50.896Z,100014.91
2023-04-13T11:08:59.784Z,100016.72
2023-04-13T11:16:04.698Z,100027.81
2023-04-13T11:23:07.784Z,100027.69
2023-04-13T11:30:11.095Z,100034.78
2023-04-13T11:37:12.709Z,100028.16
2023-04-13T11:44:14.714Z,100036.47
2023-04-13T11:51:16.420Z,100042.22
2023-04-13T11:58:18.940Z,100039.34
2023-04-13T12:05:32.481Z,100034.19
2023-04-13T12:19:41.694Z,100045.66
2023-04-13T12:33:51.388Z,100034.91
2023-04-13T12:40:59.618Z,100037.28
2023-04-13T12:48:02.277Z,100039.19
2023-04-13T12:55:03.979Z,100048.13
2023-04-13T13:02:06.094Z,100035.53
2023-04-13T13:09:07.751Z,100031.38
2023-04-13T13:16:09.423Z,100038.16
2023-04-13T13:23:12.124Z,100036.81
2023-04-13T13:30:14.321Z,100030.09
2023-04-13T13:37:16.013Z,100039.00
2023-04-13T13:44:20.996Z,100031.53
2023-04-13T13:51:22.591Z,100023.34
2023-04-13T13:58:24.348Z,100028.19
2023-04-13T14:05:26.370Z,100031.53
2023-04-13T14:12:27.938Z,100039.75
2023-04-13T14:19:29.496Z,100044.72
2023-04-13T14:26:31.086Z,100036.13
2023-04-13T14:33:32.641Z,100036.00
2023-04-13T14:40:34.547Z,100049.63
2023-04-13T14:47:36.219Z,100057.31
2023-04-13T14:54:38.647Z,100049.03
2023-04-13T15:01:41.053Z,100067.88
2023-04-13T15:08:42.718Z,100070.63
2023-04-13T15:15:44.669Z,100072.25
2023-04-13T15:22:46.209Z,100089.66
2023-04-13T15:29:47.781Z,100111.72
2023-04-13T15:36:49.318Z,100108.81
2023-04-13T15:43:51.097Z,100109.28
2023-04-13T15:50:59.460Z,100110.84
2023-04-13T15:58:03.554Z,100125.28
2023-04-13T16:05:05.176Z,100135.28
2023-04-13T16:12:11.215Z,100142.97
2023-04-13T16:19:13.293Z,100135.53
2023-04-13T16:26:14.837Z,100143.00
2023-04-13T16:33:16.568Z,100153.56
2023-04-13T16:40:18.769Z,100152.66
2023-04-13T16:47:21.365Z,100162.22
2023-04-13T16:54:23.069Z,100172.16
2023-04-13T17:01:28.111Z,100174.06
2023-04-13T17:08:31.556Z,100181.41
2023-04-13T17:15:33.243Z,100196.31
2023-04-13T17:22:34.962Z,100190.72
2023-04-13T17:29:37.897Z,100200.19
2023-04-13T17:36:39.448Z,100209.91
2023-04-13T17:43:41.050Z,100209.06
2023-04-13T17:50:42.666Z,100216.06
2023-04-13T17:57:44.215Z,100210.47
2023-04-13T18:04:46.614Z,100214.13
2023-04-13T18:11:48.133Z,100214.31
2023-04-13T18:18:51.269Z,100214.88
2023-04-13T18:25:52.930Z,100223.28
2023-04-13T18:32:54.690Z,100230.19
2023-04-13T18:39:57.608Z,100245.88
2023-04-13T18:46:59.300Z,100265.41
2023-04-13T18:54:02.025Z,100273.75
2023-04-13T19:01:03.777Z,100294.69
2023-04-13T19:08:09.710Z,100311.91
2023-04-13T19:15:11.539Z,100332.31
2023-04-13T19:22:13.406Z,100338.13
2023-04-13T19:29:15.463Z,100344.78
2023-04-13T19:36:17.116Z,100367.63
2023-04-13T19:43:22.592Z,100375.00
2023-04-13T19:50:24.126Z,100375.63
2023-04-13T19:57:25.836Z,100390.53
2023-04-13T20:04:27.549Z,100385.25
2023-04-13T20:11:29.225Z,100387.69
2023-04-13T20:18:30.830Z,100376.47
2023-04-13T20:25:32.389Z,100375.09
2023-04-13T20:32:34.072Z,100366.84
2023-04-13T20:39:37.852Z,100356.50
2023-04-13T20:46:41.965Z,100362.13
2023-04-13T20:53:43.852Z,100345.59
2023-04-13T21:00:45.650Z,100336.44
2023-04-13T21:07:47.223Z,100336.00
2023-04-13T21:14:49.143Z,100349.19
2023-04-13T21:21:52.049Z,100337.13
2023-04-13T21:28:53.590Z,100339.25
2023-04-13T21:35:55.106Z,100333.66
2023-04-13T21:42:56.612Z,100331.16
2023-04-13T21:49:58.149Z,100326.13
2023-04-13T21:56:59.677Z,100322.91
2023-04-13T22:04:01.555Z,100333.56
2023-04-13T22:11:03.278Z,100340.72
2023-04-13T22:18:05.001Z,100359.03
2023-04-13T22:25:06.765Z,100350.75
2023-04-13T22:32:08.300Z,100375.94
2023-04-13T22:39:09.834Z,100376.06
2023-04-13T22:46:11.455Z,100371.50
2023-04-13T22:53:13.056Z,100358.44
2023-04-13T23:00:14.813Z,100348.41
2023-04-13T23:07:16.340Z,100352.63
2023-04-13T23:14:18.572Z,100343.34
2023-04-13T23:21:20.327Z,100340.84
2023-04-13T23:28:21.965Z,100327.13
2023-04-13T23:35:23.510Z,100329.94
2023-04-13T23:42:25.032Z,100315.16
2023-04-13T23:49:26.586Z,100327.13
2023-04-13T23:56:28.344Z,100337.91
